TimeCET,TemperatureF,Dew PointF,Humidity,Sea Level PressureIn,VisibilityMPH,Wind Direction,Wind SpeedMPH,Gust SpeedMPH,PrecipitationIn,Events,Conditions,WindDirDegrees,DateUTC
12:00 AM,48.2,44.6,87,29.86,6.2,ENE,3.5,-,N/A,,Partly Cloudy,70,2013-03-16 23:00:00
12:30 AM,46.4,42.8,87,29.86,6.2,ENE,3.5,-,N/A,,Partly Cloudy,70,2013-03-16 23:30:00
1:00 AM,45,40,75,29.87,9,Calm,Calm,,,,Scattered Clouds,,2013-03-17 00:00:00
1:00 AM,46.4,42.8,87,29.86,6.2,East,1.2,-,N/A,,Partly Cloudy,90,2013-03-17 00:00:00
2:00 AM,46.4,42.8,87,29.83,6.2,Variable,2.3,-,N/A,,Partly Cloudy,0,2013-03-17 01:00:00
2:30 AM,42.8,41.0,93,29.80,6.2,ENE,3.5,-,N/A,,Partly Cloudy,60,2013-03-17 01:30:00
3:00 AM,44.6,41.0,87,29.83,6.2,Variable,1.2,-,N/A,,Partly Cloudy,0,2013-03-17 02:00:00
3:30 AM,42.8,41.0,93,29.77,6.2,NE,2.3,-,N/A,,Partly Cloudy,50,2013-03-17 02:30:00
4:00 AM,44.6,42.8,93,29.77,6.2,Variable,1.2,-,N/A,,Partly Cloudy,0,2013-03-17 03:00:00
4:30 AM,44.6,42.8,93,29.77,6.2,Variable,1.2,-,N/A,,Partly Cloudy,0,2013-03-17 03:30:00
5:00 AM,46.4,42.8,87,29.77,6.2,North,3.5,-,N/A,,Partly Cloudy,350,2013-03-17 04:00:00
5:30 AM,46.4,44.6,93,29.74,6.2,Variable,2.3,-,N/A,,Partly Cloudy,0,2013-03-17 04:30:00
6:00 AM,46.4,44.6,93,29.74,6.2,Calm,Calm,-,N/A,,Partly Cloudy,0,2013-03-17 05:00:00
6:30 AM,46.4,44.6,93,29.71,6.2,NNE,4.6,-,N/A,,Partly Cloudy,20,2013-03-17 05:30:00
7:00 AM,46,43,87,29.72,12,North,2.3,,,Rain,Light Drizzle,350,2013-03-17 06:00:00
7:00 AM,46.4,46.4,100,29.71,6.2,Variable,1.2,-,N/A,,Partly Cloudy,0,2013-03-17 06:00:00
7:30 AM,48.2,46.4,93,29.74,6.2,Calm,Calm,-,N/A,,Partly Cloudy,0,2013-03-17 06:30:00
8:00 AM,48.2,46.4,93,29.71,6.2,Variable,1.2,-,N/A,,Partly Cloudy,0,2013-03-17 07:00:00
8:30 AM,50.0,48.2,94,29.71,6.2,Variable,2.3,-,N/A,,Partly Cloudy,0,2013-03-17 07:30:00
9:00 AM,51.8,48.2,88,29.68,6.2,Calm,Calm,-,N/A,,Partly Cloudy,0,2013-03-17 08:00:00
9:30 AM,53.6,50.0,88,29.68,6.2,Calm,Calm,-,N/A,,Partly Cloudy,0,2013-03-17 08:30:00
10:00 AM,55.4,51.8,88,29.65,6.2,Variable,1.2,-,N/A,,Partly Cloudy,0,2013-03-17 09:00:00
10:30 AM,59.0,51.8,77,29.65,6.2,Variable,1.2,-,N/A,,Partly Cloudy,0,2013-03-17 09:30:00
11:00 AM,60.8,51.8,72,29.65,6.2,West,1.2,-,N/A,,Partly Cloudy,270,2013-03-17 10:00:00
11:30 AM,59.0,51.8,77,29.65,6.2,West,1.2,-,N/A,,Partly Cloudy,270,2013-03-17 10:30:00
12:00 PM,62.6,51.8,68,29.62,6.2,Calm,Calm,-,N/A,,Partly Cloudy,0,2013-03-17 11:00:00
12:30 PM,62.6,51.8,68,29.62,6.2,Variable,2.3,-,N/A,,Partly Cloudy,0,2013-03-17 11:30:00
1:00 PM,64,48,45,29.63,12,Calm,Calm,,,,Scattered Clouds,,2013-03-17 12:00:00
1:00 PM,64.4,53.6,68,29.62,6.2,WNW,3.5,-,N/A,,Partly Cloudy,300,2013-03-17 12:00:00
1:30 PM,62.6,48.2,59,29.62,6.2,West,5.8,-,N/A,,Partly Cloudy,260,2013-03-17 12:30:00
2:00 PM,62.6,44.6,52,29.59,6.2,Variable,2.3,-,N/A,,Partly Cloudy,0,2013-03-17 13:00:00
2:30 PM,62.6,46.4,55,29.56,6.2,Variable,2.3,-,N/A,Rain,Light Rain,0,2013-03-17 13:30:00
3:00 PM,62.6,48.2,59,29.56,6.2,Variable,2.3,-,N/A,,Partly Cloudy,0,2013-03-17 14:00:00
3:30 PM,62.6,50.0,63,29.56,6.2,SSW,5.8,-,N/A,,Partly Cloudy,210,2013-03-17 14:30:00
4:00 PM,60.8,51.8,72,29.56,6.2,SW,8.1,-,N/A,,Partly Cloudy,220,2013-03-17 15:00:00
4:30 PM,60.8,51.8,72,29.53,6.2,South,8.1,-,N/A,,Partly Cloudy,190,2013-03-17 15:30:00
5:00 PM,60.8,53.6,77,29.53,6.2,SSW,5.8,-,N/A,,Partly Cloudy,210,2013-03-17 16:00:00
5:30 PM,60.8,51.8,72,29.50,6.2,SSW,5.8,-,N/A,,Partly Cloudy,200,2013-03-17 16:30:00
6:00 PM,60.8,51.8,72,29.50,6.2,SSW,3.5,-,N/A,,Partly Cloudy,200,2013-03-17 17:00:00
6:30 PM,60.8,51.8,72,29.50,6.2,South,1.2,-,N/A,,Partly Cloudy,170,2013-03-17 17:30:00
7:00 PM,58,48,61,29.52,12,Calm,Calm,,,,Partly Cloudy,,2013-03-17 18:00:00
7:00 PM,59.0,51.8,77,29.50,6.2,SSW,1.2,-,N/A,,Partly Cloudy,200,2013-03-17 18:00:00
7:30 PM,59.0,51.8,77,29.50,6.2,Calm,Calm,-,N/A,,Partly Cloudy,0,2013-03-17 18:30:00
8:00 PM,60.8,51.8,72,29.53,6.2,SSW,4.6,-,N/A,,Partly Cloudy,210,2013-03-17 19:00:00
8:11 PM,59.0,55.4,88,29.53,6.2,SW,10.4,-,N/A,Rain,Rain,230,2013-03-17 19:11:00
8:20 PM,59.0,55.4,88,29.53,6.2,SW,12.7,-,N/A,Rain,Light Rain,230,2013-03-17 19:20:00
8:30 PM,59.0,55.4,88,29.53,6.2,SW,12.7,-,N/A,,Scattered Clouds,230,2013-03-17 19:30:00
9:00 PM,59.0,55.4,88,29.53,6.2,SW,9.2,-,N/A,,Scattered Clouds,230,2013-03-17 20:00:00
9:30 PM,59.0,55.4,88,29.53,6.2,WSW,10.4,-,N/A,,Scattered Clouds,240,2013-03-17 20:30:00
10:00 PM,59.0,55.4,88,29.50,3.7,WSW,5.8,-,N/A,Rain,Rain,250,2013-03-17 21:00:00
10:06 PM,59.0,55.4,88,29.50,5.0,SW,3.5,-,N/A,Rain,Light Rain,230,2013-03-17 21:06:00
10:30 PM,57.2,55.4,94,29.50,6.2,SSE,5.8,-,N/A,,Mostly Cloudy,160,2013-03-17 21:30:00
11:00 PM,57.2,55.4,94,29.53,5.6,SW,5.8,-,N/A,Rain,Light Rain,230,2013-03-17 22:00:00
11:30 PM,57.2,55.4,94,29.53,4.3,Variable,1.2,-,N/A,Rain,Light Rain,0,2013-03-17 22:30:00